sensor_id;sensor_type;location;lat;lon;timestamp;P1;durP1;ratioP1;P2;durP2;ratioP2
43680;SDS011;29281;50.356;30.894;2022-09-02T00:00:04;3.54;;;2.03;;
43680;SDS011;29281;50.356;30.894;2022-09-02T00:01:22;4.19;;;2.19;;
43680;SDS011;29281;50.356;30.894;2022-09-02T00:02:29;3.93;;;2.26;;
43680;SDS011;29281;50.356;30.894;2022-09-02T00:03:34;4.76;;;2.31;;
43680;SDS011;29281;50.356;30.894;2022-09-02T00:04:38;4.57;;;2.67;;
43680;SDS011;29281;50.356;30.894;2022-09-02T00:05:42;7.94;;;2.56;;
43680;SDS011;29281;50.356;30.894;2022-09-02T00:06:46;4.46;;;2.41;;
43680;SDS011;29281;50.356;30.894;2022-09-02T00:07:52;4.74;;;2.80;;
43680;SDS011;29281;50.356;30.894;2022-09-02T00:08:57;5.47;;;2.51;;
43680;SDS011;29281;50.356;30.894;2022-09-02T00:10:03;4.17;;;2.34;;
43680;SDS011;29281;50.356;30.894;2022-09-02T00:11:08;6.03;;;2.24;;
43680;SDS011;29281;50.356;30.894;2022-09-02T00:12:16;4.69;;;2.77;;
43680;SDS011;29281;50.356;30.894;2022-09-02T00:13:21;4.12;;;2.75;;
43680;SDS011;29281;50.356;30.894;2022-09-02T00:14:27;5.14;;;2.51;;
43680;SDS011;29281;50.356;30.894;2022-09-02T00:15:36;4.83;;;2.68;;
43680;SDS011;29281;50.356;30.894;2022-09-02T00:16:42;4.29;;;2.61;;
43680;SDS011;29281;50.356;30.894;2022-09-02T00:17:47;7.41;;;3.16;;
43680;SDS011;29281;50.356;30.894;2022-09-02T00:18:52;6.32;;;2.64;;
43680;SDS011;29281;50.356;30.894;2022-09-02T00:19:59;4.48;;;2.44;;
43680;SDS011;29281;50.356;30.894;2022-09-02T00:21:03;7.63;;;3.11;;
43680;SDS011;29281;50.356;30.894;2022-09-02T00:22:07;4.11;;;2.71;;
43680;SDS011;29281;50.356;30.894;2022-09-02T00:23:15;4.03;;;2.90;;
43680;SDS011;29281;50.356;30.894;2022-09-02T00:24:19;4.63;;;2.90;;
43680;SDS011;29281;50.356;30.894;2022-09-02T00:25:24;5.50;;;3.09;;
43680;SDS011;29281;50.356;30.894;2022-09-02T00:26:29;5.43;;;3.03;;
43680;SDS011;29281;50.356;30.894;2022-09-02T00:27:39;8.28;;;3.29;;
43680;SDS011;29281;50.356;30.894;2022-09-02T00:28:59;5.23;;;2.91;;
43680;SDS011;29281;50.356;30.894;2022-09-02T00:30:06;5.34;;;2.94;;
43680;SDS011;29281;50.356;30.894;2022-09-02T00:31:13;4.22;;;2.71;;
43680;SDS011;29281;50.356;30.894;2022-09-02T00:32:18;5.81;;;3.04;;
43680;SDS011;29281;50.356;30.894;2022-09-02T00:33:24;5.26;;;2.85;;
43680;SDS011;29281;50.356;30.894;2022-09-02T00:34:28;4.31;;;2.42;;
43680;SDS011;29281;50.356;30.894;2022-09-02T00:35:31;6.72;;;3.05;;
43680;SDS011;29281;50.356;30.894;2022-09-02T00:36:37;6.56;;;3.12;;
43680;SDS011;29281;50.356;30.894;2022-09-02T00:37:40;6.11;;;2.74;;
43680;SDS011;29281;50.356;30.894;2022-09-02T00:38:44;3.94;;;2.61;;
43680;SDS011;29281;50.356;30.894;2022-09-02T00:39:49;4.79;;;2.89;;
43680;SDS011;29281;50.356;30.894;2022-09-02T00:40:55;6.38;;;2.83;;
43680;SDS011;29281;50.356;30.894;2022-09-02T00:41:59;5.56;;;3.09;;
43680;SDS011;29281;50.356;30.894;2022-09-02T00:43:06;5.15;;;3.05;;
43680;SDS011;29281;50.356;30.894;2022-09-02T00:44:20;6.88;;;2.98;;
43680;SDS011;29281;50.356;30.894;2022-09-02T00:45:25;7.51;;;3.18;;
43680;SDS011;29281;50.356;30.894;2022-09-02T00:46:31;4.96;;;2.82;;
43680;SDS011;29281;50.356;30.894;2022-09-02T00:47:36;6.52;;;2.80;;
43680;SDS011;29281;50.356;30.894;2022-09-02T00:48:43;4.36;;;2.81;;
43680;SDS011;29281;50.356;30.894;2022-09-02T00:49:52;5.51;;;2.75;;
43680;SDS011;29281;50.356;30.894;2022-09-02T00:51:01;5.65;;;2.65;;
43680;SDS011;29281;50.356;30.894;2022-09-02T00:53:26;4.97;;;2.99;;
43680;SDS011;29281;50.356;30.894;2022-09-02T00:54:31;6.11;;;2.74;;
43680;SDS011;29281;50.356;30.894;2022-09-02T00:55:39;4.71;;;2.53;;
43680;SDS011;29281;50.356;30.894;2022-09-02T00:56:47;5.27;;;2.80;;
43680;SDS011;29281;50.356;30.894;2022-09-02T00:57:58;4.92;;;2.61;;
43680;SDS011;29281;50.356;30.894;2022-09-02T00:59:03;4.54;;;2.55;;
43680;SDS011;29281;50.356;30.894;2022-09-02T01:00:11;5.57;;;2.25;;
43680;SDS011;29281;50.356;30.894;2022-09-02T01:01:20;4.11;;;2.47;;
43680;SDS011;29281;50.356;30.894;2022-09-02T01:02:25;4.45;;;2.58;;
43680;SDS011;29281;50.356;30.894;2022-09-02T01:03:32;6.86;;;2.74;;
43680;SDS011;29281;50.356;30.894;2022-09-02T01:04:36;5.88;;;2.97;;
43680;SDS011;29281;50.356;30.894;2022-09-02T01:05:42;5.13;;;2.75;;
43680;SDS011;29281;50.356;30.894;2022-09-02T01:06:47;4.09;;;2.34;;
43680;SDS011;29281;50.356;30.894;2022-09-02T01:07:51;4.51;;;2.25;;
43680;SDS011;29281;50.356;30.894;2022-09-02T01:09:02;6.12;;;2.62;;
43680;SDS011;29281;50.356;30.894;2022-09-02T01:10:09;3.33;;;2.31;;
43680;SDS011;29281;50.356;30.894;2022-09-02T01:11:15;5.66;;;2.04;;
43680;SDS011;29281;50.356;30.894;2022-09-02T01:12:22;3.81;;;2.09;;
43680;SDS011;29281;50.356;30.894;2022-09-02T01:13:30;3.58;;;2.01;;
43680;SDS011;29281;50.356;30.894;2022-09-02T01:14:40;5.15;;;2.21;;
43680;SDS011;29281;50.356;30.894;2022-09-02T01:15:47;3.58;;;1.95;;
43680;SDS011;29281;50.356;30.894;2022-09-02T01:16:58;4.61;;;2.36;;
43680;SDS011;29281;50.356;30.894;2022-09-02T01:18:04;5.43;;;2.00;;
43680;SDS011;29281;50.356;30.894;2022-09-02T01:19:14;3.99;;;2.25;;
43680;SDS011;29281;50.356;30.894;2022-09-02T01:20:20;4.66;;;1.93;;
43680;SDS011;29281;50.356;30.894;2022-09-02T01:21:27;5.79;;;1.98;;
43680;SDS011;29281;50.356;30.894;2022-09-02T01:22:31;6.43;;;2.17;;
43680;SDS011;29281;50.356;30.894;2022-09-02T01:23:35;3.45;;;2.05;;
43680;SDS011;29281;50.356;30.894;2022-09-02T01:24:44;3.96;;;1.91;;
43680;SDS011;29281;50.356;30.894;2022-09-02T01:25:48;3.26;;;1.99;;
43680;SDS011;29281;50.356;30.894;2022-09-02T01:26:54;4.06;;;2.31;;
43680;SDS011;29281;50.356;30.894;2022-09-02T01:28:06;4.24;;;2.11;;
43680;SDS011;29281;50.356;30.894;2022-09-02T01:29:08;4.34;;;2.01;;
43680;SDS011;29281;50.356;30.894;2022-09-02T01:30:16;3.68;;;2.25;;
43680;SDS011;29281;50.356;30.894;2022-09-02T01:31:21;3.48;;;2.07;;
43680;SDS011;29281;50.356;30.894;2022-09-02T01:32:25;5.22;;;1.96;;
43680;SDS011;29281;50.356;30.894;2022-09-02T01:33:31;5.61;;;1.95;;
43680;SDS011;29281;50.356;30.894;2022-09-02T01:34:37;4.00;;;1.87;;
43680;SDS011;29281;50.356;30.894;2022-09-02T01:35:40;3.04;;;1.94;;
43680;SDS011;29281;50.356;30.894;2022-09-02T01:36:45;3.56;;;1.98;;
43680;SDS011;29281;50.356;30.894;2022-09-02T01:37:52;4.34;;;2.07;;
43680;SDS011;29281;50.356;30.894;2022-09-02T01:38:58;4.08;;;1.84;;
43680;SDS011;29281;50.356;30.894;2022-09-02T01:40:03;3.01;;;1.94;;
43680;SDS011;29281;50.356;30.894;2022-09-02T01:41:09;4.18;;;1.76;;
43680;SDS011;29281;50.356;30.894;2022-09-02T01:42:13;4.50;;;2.11;;
43680;SDS011;29281;50.356;30.894;2022-09-02T01:43:20;4.58;;;1.88;;
43680;SDS011;29281;50.356;30.894;2022-09-02T01:44:29;4.71;;;1.93;;
43680;SDS011;29281;50.356;30.894;2022-09-02T01:45:33;3.35;;;1.82;;
43680;SDS011;29281;50.356;30.894;2022-09-02T01:46:39;3.72;;;2.07;;
43680;SDS011;29281;50.356;30.894;2022-09-02T01:47:42;4.35;;;2.04;;
43680;SDS011;29281;50.356;30.894;2022-09-02T01:48:46;4.16;;;1.92;;
43680;SDS011;29281;50.356;30.894;2022-09-02T01:49:50;3.11;;;1.65;;
43680;SDS011;29281;50.356;30.894;2022-09-02T01:50:56;3.23;;;1.78;;
43680;SDS011;29281;50.356;30.894;2022-09-02T01:52:04;4.17;;;1.91;;
43680;SDS011;29281;50.356;30.894;2022-09-02T01:53:10;3.91;;;1.62;;
43680;SDS011;29281;50.356;30.894;2022-09-02T01:54:12;3.83;;;1.66;;
43680;SDS011;29281;50.356;30.894;2022-09-02T01:55:17;4.43;;;1.97;;
43680;SDS011;29281;50.356;30.894;2022-09-02T01:56:22;3.93;;;1.82;;
43680;SDS011;29281;50.356;30.894;2022-09-02T01:57:27;2.96;;;1.59;;
43680;SDS011;29281;50.356;30.894;2022-09-02T01:58:32;6.39;;;1.96;;
43680;SDS011;29281;50.356;30.894;2022-09-02T01:59:36;3.02;;;1.78;;
43680;SDS011;29281;50.356;30.894;2022-09-02T02:00:43;3.26;;;1.82;;
43680;SDS011;29281;50.356;30.894;2022-09-02T02:01:52;3.52;;;1.86;;
43680;SDS011;29281;50.356;30.894;2022-09-02T02:03:00;4.57;;;2.07;;
43680;SDS011;29281;50.356;30.894;2022-09-02T02:04:09;4.06;;;1.98;;
43680;SDS011;29281;50.356;30.894;2022-09-02T02:05:16;3.16;;;1.63;;
43680;SDS011;29281;50.356;30.894;2022-09-02T02:06:22;3.16;;;1.89;;
43680;SDS011;29281;50.356;30.894;2022-09-02T02:07:28;3.36;;;1.67;;
43680;SDS011;29281;50.356;30.894;2022-09-02T02:08:31;3.42;;;1.70;;
43680;SDS011;29281;50.356;30.894;2022-09-02T02:09:37;3.19;;;1.90;;
43680;SDS011;29281;50.356;30.894;2022-09-02T02:10:42;4.01;;;1.70;;
43680;SDS011;29281;50.356;30.894;2022-09-02T02:11:48;3.57;;;1.70;;
43680;SDS011;29281;50.356;30.894;2022-09-02T02:12:52;3.92;;;2.00;;
43680;SDS011;29281;50.356;30.894;2022-09-02T02:13:57;4.13;;;1.56;;
43680;SDS011;29281;50.356;30.894;2022-09-02T02:15:03;4.24;;;1.78;;
43680;SDS011;29281;50.356;30.894;2022-09-02T02:16:14;4.27;;;1.74;;
43680;SDS011;29281;50.356;30.894;2022-09-02T02:17:19;2.74;;;1.71;;
43680;SDS011;29281;50.356;30.894;2022-09-02T02:18:23;2.95;;;1.73;;
43680;SDS011;29281;50.356;30.894;2022-09-02T02:19:27;3.39;;;1.84;;
43680;SDS011;29281;50.356;30.894;2022-09-02T02:20:33;2.72;;;1.69;;
43680;SDS011;29281;50.356;30.894;2022-09-02T02:21:37;5.32;;;1.94;;
43680;SDS011;29281;50.356;30.894;2022-09-02T02:22:40;7.22;;;3.02;;
43680;SDS011;29281;50.356;30.894;2022-09-02T02:23:48;3.12;;;1.88;;
43680;SDS011;29281;50.356;30.894;2022-09-02T02:24:52;4.67;;;2.04;;
43680;SDS011;29281;50.356;30.894;2022-09-02T02:25:56;3.61;;;1.97;;
43680;SDS011;29281;50.356;30.894;2022-09-02T02:27:02;6.71;;;1.91;;
43680;SDS011;29281;50.356;30.894;2022-09-02T02:28:07;3.68;;;1.81;;
43680;SDS011;29281;50.356;30.894;2022-09-02T02:29:12;3.62;;;2.19;;
43680;SDS011;29281;50.356;30.894;2022-09-02T02:30:17;3.19;;;2.00;;
43680;SDS011;29281;50.356;30.894;2022-09-02T02:31:22;5.58;;;1.90;;
43680;SDS011;29281;50.356;30.894;2022-09-02T02:32:27;3.81;;;1.73;;
43680;SDS011;29281;50.356;30.894;2022-09-02T02:33:31;4.84;;;1.95;;
43680;SDS011;29281;50.356;30.894;2022-09-02T02:34:38;3.86;;;1.75;;
43680;SDS011;29281;50.356;30.894;2022-09-02T02:35:41;2.52;;;1.71;;
43680;SDS011;29281;50.356;30.894;2022-09-02T02:36:54;3.68;;;1.99;;
43680;SDS011;29281;50.356;30.894;2022-09-02T02:38:01;3.41;;;1.72;;
43680;SDS011;29281;50.356;30.894;2022-09-02T02:39:06;3.68;;;1.92;;
43680;SDS011;29281;50.356;30.894;2022-09-02T02:40:13;4.28;;;2.03;;
43680;SDS011;29281;50.356;30.894;2022-09-02T02:41:18;5.39;;;1.91;;
43680;SDS011;29281;50.356;30.894;2022-09-02T02:42:22;3.32;;;1.62;;
43680;SDS011;29281;50.356;30.894;2022-09-02T02:43:25;2.69;;;1.54;;
43680;SDS011;29281;50.356;30.894;2022-09-02T02:44:31;4.52;;;2.05;;
43680;SDS011;29281;50.356;30.894;2022-09-02T02:45:35;3.69;;;2.18;;
43680;SDS011;29281;50.356;30.894;2022-09-02T02:46:38;3.16;;;1.86;;
43680;SDS011;29281;50.356;30.894;2022-09-02T02:47:43;3.66;;;2.00;;
43680;SDS011;29281;50.356;30.894;2022-09-02T02:48:49;3.16;;;2.03;;
43680;SDS011;29281;50.356;30.894;2022-09-02T02:49:53;2.79;;;1.81;;
43680;SDS011;29281;50.356;30.894;2022-09-02T02:50:57;9.63;;;2.19;;
43680;SDS011;29281;50.356;30.894;2022-09-02T02:52:02;4.14;;;2.18;;
43680;SDS011;29281;50.356;30.894;2022-09-02T02:53:07;4.51;;;2.32;;
43680;SDS011;29281;50.356;30.894;2022-09-02T02:54:15;4.09;;;1.85;;
43680;SDS011;29281;50.356;30.894;2022-09-02T02:55:19;3.92;;;1.95;;
43680;SDS011;29281;50.356;30.894;2022-09-02T02:56:26;3.12;;;1.88;;
43680;SDS011;29281;50.356;30.894;2022-09-02T02:57:35;3.59;;;1.96;;
43680;SDS011;29281;50.356;30.894;2022-09-02T02:58:41;3.75;;;2.04;;
43680;SDS011;29281;50.356;30.894;2022-09-02T02:59:45;3.10;;;1.77;;
43680;SDS011;29281;50.356;30.894;2022-09-02T03:00:52;4.70;;;2.11;;
43680;SDS011;29281;50.356;30.894;2022-09-02T03:02:02;3.19;;;1.92;;
43680;SDS011;29281;50.356;30.894;2022-09-02T03:03:09;3.61;;;2.13;;
43680;SDS011;29281;50.356;30.894;2022-09-02T03:04:17;3.34;;;2.21;;
43680;SDS011;29281;50.356;30.894;2022-09-02T03:05:22;4.26;;;1.92;;
43680;SDS011;29281;50.356;30.894;2022-09-02T03:06:27;3.72;;;2.32;;
43680;SDS011;29281;50.356;30.894;2022-09-02T03:07:31;4.07;;;2.01;;
43680;SDS011;29281;50.356;30.894;2022-09-02T03:08:34;3.69;;;2.38;;
43680;SDS011;29281;50.356;30.894;2022-09-02T03:09:42;3.49;;;2.34;;
43680;SDS011;29281;50.356;30.894;2022-09-02T03:10:47;5.59;;;2.72;;
43680;SDS011;29281;50.356;30.894;2022-09-02T03:11:54;4.43;;;2.44;;
43680;SDS011;29281;50.356;30.894;2022-09-02T03:13:01;4.08;;;2.49;;
43680;SDS011;29281;50.356;30.894;2022-09-02T03:14:05;6.02;;;2.74;;
43680;SDS011;29281;50.356;30.894;2022-09-02T03:15:12;4.66;;;2.64;;
43680;SDS011;29281;50.356;30.894;2022-09-02T03:16:22;7.88;;;3.06;;
43680;SDS011;29281;50.356;30.894;2022-09-02T03:17:31;5.27;;;2.69;;
43680;SDS011;29281;50.356;30.894;2022-09-02T03:18:37;4.91;;;2.62;;
43680;SDS011;29281;50.356;30.894;2022-09-02T03:19:50;4.48;;;2.73;;
43680;SDS011;29281;50.356;30.894;2022-09-02T03:20:57;5.96;;;2.86;;
43680;SDS011;29281;50.356;30.894;2022-09-02T03:22:03;4.29;;;2.48;;
43680;SDS011;29281;50.356;30.894;2022-09-02T03:23:07;4.71;;;2.52;;
43680;SDS011;29281;50.356;30.894;2022-09-02T03:24:11;4.56;;;2.61;;
43680;SDS011;29281;50.356;30.894;2022-09-02T03:25:16;5.57;;;2.36;;
43680;SDS011;29281;50.356;30.894;2022-09-02T03:26:23;4.83;;;2.63;;
43680;SDS011;29281;50.356;30.894;2022-09-02T03:27:27;4.35;;;2.55;;
43680;SDS011;29281;50.356;30.894;2022-09-02T03:28:31;4.19;;;2.43;;
43680;SDS011;29281;50.356;30.894;2022-09-02T03:29:37;4.16;;;2.36;;
43680;SDS011;29281;50.356;30.894;2022-09-02T03:30:41;4.66;;;2.42;;
43680;SDS011;29281;50.356;30.894;2022-09-02T03:31:48;4.26;;;2.42;;
43680;SDS011;29281;50.356;30.894;2022-09-02T03:32:57;5.32;;;2.43;;
43680;SDS011;29281;50.356;30.894;2022-09-02T03:34:06;4.54;;;2.36;;
43680;SDS011;29281;50.356;30.894;2022-09-02T03:35:12;4.06;;;2.06;;
43680;SDS011;29281;50.356;30.894;2022-09-02T03:36:22;3.56;;;2.17;;
43680;SDS011;29281;50.356;30.894;2022-09-02T03:37:29;3.92;;;2.07;;
43680;SDS011;29281;50.356;30.894;2022-09-02T03:38:34;4.33;;;2.63;;
43680;SDS011;29281;50.356;30.894;2022-09-02T03:39:41;3.26;;;2.04;;
43680;SDS011;29281;50.356;30.894;2022-09-02T03:40:46;4.32;;;2.34;;
43680;SDS011;29281;50.356;30.894;2022-09-02T03:41:53;4.21;;;2.59;;
43680;SDS011;29281;50.356;30.894;2022-09-02T03:42:59;4.46;;;2.06;;
43680;SDS011;29281;50.356;30.894;2022-09-02T03:44:07;4.03;;;2.31;;
43680;SDS011;29281;50.356;30.894;2022-09-02T03:45:15;3.59;;;2.23;;
43680;SDS011;29281;50.356;30.894;2022-09-02T03:46:23;4.07;;;2.49;;
43680;SDS011;29281;50.356;30.894;2022-09-02T03:47:27;5.30;;;2.76;;
43680;SDS011;29281;50.356;30.894;2022-09-02T03:48:32;5.68;;;2.71;;
43680;SDS011;29281;50.356;30.894;2022-09-02T03:49:37;4.21;;;2.32;;
43680;SDS011;29281;50.356;30.894;2022-09-02T03:50:43;4.22;;;2.51;;
43680;SDS011;29281;50.356;30.894;2022-09-02T03:52:58;3.96;;;2.69;;
43680;SDS011;29281;50.356;30.894;2022-09-02T03:54:05;4.13;;;2.34;;
43680;SDS011;29281;50.356;30.894;2022-09-02T03:55:15;5.28;;;3.11;;
43680;SDS011;29281;50.356;30.894;2022-09-02T03:56:23;3.79;;;2.79;;
43680;SDS011;29281;50.356;30.894;2022-09-02T03:57:27;4.89;;;2.38;;
43680;SDS011;29281;50.356;30.894;2022-09-02T03:58:32;3.82;;;2.34;;
43680;SDS011;29281;50.356;30.894;2022-09-02T03:59:37;3.81;;;2.21;;
43680;SDS011;29281;50.356;30.894;2022-09-02T04:00:43;4.13;;;2.44;;
43680;SDS011;29281;50.356;30.894;2022-09-02T04:01:50;5.61;;;2.54;;
43680;SDS011;29281;50.356;30.894;2022-09-02T04:02:54;4.49;;;2.39;;
43680;SDS011;29281;50.356;30.894;2022-09-02T04:03:58;5.75;;;2.42;;
43680;SDS011;29281;50.356;30.894;2022-09-02T04:05:03;4.24;;;2.27;;
43680;SDS011;29281;50.356;30.894;2022-09-02T04:06:10;6.12;;;2.62;;
43680;SDS011;29281;50.356;30.894;2022-09-02T04:07:15;5.82;;;2.62;;
43680;SDS011;29281;50.356;30.894;2022-09-02T04:08:18;4.96;;;2.62;;
43680;SDS011;29281;50.356;30.894;2022-09-02T04:09:22;5.01;;;2.62;;
43680;SDS011;29281;50.356;30.894;2022-09-02T04:10:27;3.89;;;2.56;;
43680;SDS011;29281;50.356;30.894;2022-09-02T04:11:30;4.62;;;2.50;;
43680;SDS011;29281;50.356;30.894;2022-09-02T04:12:35;6.31;;;2.52;;
43680;SDS011;29281;50.356;30.894;2022-09-02T04:13:41;6.43;;;2.54;;
43680;SDS011;29281;50.356;30.894;2022-09-02T04:14:46;17.83;;;2.83;;
43680;SDS011;29281;50.356;30.894;2022-09-02T04:15:55;5.69;;;2.49;;
43680;SDS011;29281;50.356;30.894;2022-09-02T04:17:01;5.68;;;2.19;;
43680;SDS011;29281;50.356;30.894;2022-09-02T04:18:12;4.58;;;2.41;;
43680;SDS011;29281;50.356;30.894;2022-09-02T04:19:21;5.52;;;2.58;;
43680;SDS011;29281;50.356;30.894;2022-09-02T04:20:24;7.24;;;2.72;;
43680;SDS011;29281;50.356;30.894;2022-09-02T04:21:30;6.66;;;2.73;;
43680;SDS011;29281;50.356;30.894;2022-09-02T04:22:38;5.12;;;2.72;;
43680;SDS011;29281;50.356;30.894;2022-09-02T04:23:44;5.31;;;2.89;;
43680;SDS011;29281;50.356;30.894;2022-09-02T04:24:48;5.31;;;2.86;;
43680;SDS011;29281;50.356;30.894;2022-09-02T04:25:52;8.01;;;2.79;;
43680;SDS011;29281;50.356;30.894;2022-09-02T04:26:57;5.67;;;3.03;;
43680;SDS011;29281;50.356;30.894;2022-09-02T04:28:05;5.38;;;2.53;;
43680;SDS011;29281;50.356;30.894;2022-09-02T04:29:09;6.68;;;2.91;;
43680;SDS011;29281;50.356;30.894;2022-09-02T04:30:16;6.83;;;3.06;;
43680;SDS011;29281;50.356;30.894;2022-09-02T04:31:21;5.45;;;2.94;;
43680;SDS011;29281;50.356;30.894;2022-09-02T04:32:30;6.40;;;3.16;;
43680;SDS011;29281;50.356;30.894;2022-09-02T04:33:36;9.56;;;2.76;;
43680;SDS011;29281;50.356;30.894;2022-09-02T04:34:43;5.41;;;2.77;;
43680;SDS011;29281;50.356;30.894;2022-09-02T04:35:47;8.72;;;2.82;;
43680;SDS011;29281;50.356;30.894;2022-09-02T04:36:53;5.72;;;2.49;;
43680;SDS011;29281;50.356;30.894;2022-09-02T04:37:56;5.82;;;2.67;;
43680;SDS011;29281;50.356;30.894;2022-09-02T04:39:02;6.42;;;2.76;;
43680;SDS011;29281;50.356;30.894;2022-09-02T04:40:09;6.88;;;3.01;;
43680;SDS011;29281;50.356;30.894;2022-09-02T04:41:16;6.62;;;2.98;;
43680;SDS011;29281;50.356;30.894;2022-09-02T04:42:24;7.04;;;2.77;;
43680;SDS011;29281;50.356;30.894;2022-09-02T04:43:29;5.44;;;2.77;;
43680;SDS011;29281;50.356;30.894;2022-09-02T04:44:33;6.57;;;3.01;;
43680;SDS011;29281;50.356;30.894;2022-09-02T04:45:38;4.59;;;2.86;;
43680;SDS011;29281;50.356;30.894;2022-09-02T04:46:44;8.49;;;3.04;;
43680;SDS011;29281;50.356;30.894;2022-09-02T04:47:50;9.54;;;2.98;;
43680;SDS011;29281;50.356;30.894;2022-09-02T04:48:55;9.21;;;2.83;;
43680;SDS011;29281;50.356;30.894;2022-09-02T04:49:58;5.42;;;2.68;;
43680;SDS011;29281;50.356;30.894;2022-09-02T04:51:02;7.17;;;2.59;;
43680;SDS011;29281;50.356;30.894;2022-09-02T04:52:14;3.82;;;2.18;;
43680;SDS011;29281;50.356;30.894;2022-09-02T04:53:19;5.31;;;2.36;;
43680;SDS011;29281;50.356;30.894;2022-09-02T04:54:24;4.57;;;2.21;;
43680;SDS011;29281;50.356;30.894;2022-09-02T04:55:31;4.53;;;1.95;;
43680;SDS011;29281;50.356;30.894;2022-09-02T04:56:39;5.78;;;2.33;;
43680;SDS011;29281;50.356;30.894;2022-09-02T04:57:44;4.44;;;2.26;;
43680;SDS011;29281;50.356;30.894;2022-09-02T04:58:48;3.97;;;2.02;;
43680;SDS011;29281;50.356;30.894;2022-09-02T04:59:53;5.06;;;2.08;;
43680;SDS011;29281;50.356;30.894;2022-09-02T05:00:56;6.75;;;2.35;;
43680;SDS011;29281;50.356;30.894;2022-09-02T05:02:01;4.79;;;2.03;;
43680;SDS011;29281;50.356;30.894;2022-09-02T05:03:09;4.33;;;2.16;;
43680;SDS011;29281;50.356;30.894;2022-09-02T05:04:17;5.08;;;2.16;;
43680;SDS011;29281;50.356;30.894;2022-09-02T05:05:23;6.05;;;2.49;;
43680;SDS011;29281;50.356;30.894;2022-09-02T05:06:27;3.77;;;2.07;;
43680;SDS011;29281;50.356;30.894;2022-09-02T05:07:36;3.72;;;2.11;;
43680;SDS011;29281;50.356;30.894;2022-09-02T05:08:45;5.43;;;2.16;;
43680;SDS011;29281;50.356;30.894;2022-09-02T05:09:55;4.28;;;2.17;;
43680;SDS011;29281;50.356;30.894;2022-09-02T05:11:03;4.98;;;2.27;;
43680;SDS011;29281;50.356;30.894;2022-09-02T05:12:10;5.07;;;2.56;;
43680;SDS011;29281;50.356;30.894;2022-09-02T05:13:16;5.48;;;2.52;;
43680;SDS011;29281;50.356;30.894;2022-09-02T05:14:20;6.09;;;2.63;;
43680;SDS011;29281;50.356;30.894;2022-09-02T05:15:37;4.42;;;2.52;;
43680;SDS011;29281;50.356;30.894;2022-09-02T05:16:43;4.42;;;2.26;;
43680;SDS011;29281;50.356;30.894;2022-09-02T05:17:50;5.17;;;2.28;;
43680;SDS011;29281;50.356;30.894;2022-09-02T05:18:55;6.39;;;2.79;;
43680;SDS011;29281;50.356;30.894;2022-09-02T05:20:00;5.54;;;2.83;;
43680;SDS011;29281;50.356;30.894;2022-09-02T05:21:06;8.07;;;4.32;;
43680;SDS011;29281;50.356;30.894;2022-09-02T05:22:11;6.99;;;3.36;;
43680;SDS011;29281;50.356;30.894;2022-09-02T05:23:15;7.18;;;3.47;;
43680;SDS011;29281;50.356;30.894;2022-09-02T05:24:20;6.29;;;3.63;;
43680;SDS011;29281;50.356;30.894;2022-09-02T05:25:26;4.98;;;3.00;;
43680;SDS011;29281;50.356;30.894;2022-09-02T05:26:30;6.76;;;3.32;;
43680;SDS011;29281;50.356;30.894;2022-09-02T05:27:36;7.08;;;2.75;;
43680;SDS011;29281;50.356;30.894;2022-09-02T05:28:42;5.17;;;2.77;;
43680;SDS011;29281;50.356;30.894;2022-09-02T05:29:47;8.83;;;3.01;;
43680;SDS011;29281;50.356;30.894;2022-09-02T05:31:01;5.59;;;3.19;;
43680;SDS011;29281;50.356;30.894;2022-09-02T05:32:12;6.91;;;3.00;;
43680;SDS011;29281;50.356;30.894;2022-09-02T05:33:17;6.35;;;2.91;;
43680;SDS011;29281;50.356;30.894;2022-09-02T05:34:22;9.47;;;3.17;;
43680;SDS011;29281;50.356;30.894;2022-09-02T05:35:28;4.24;;;2.58;;
43680;SDS011;29281;50.356;30.894;2022-09-02T05:36:33;7.11;;;3.03;;
43680;SDS011;29281;50.356;30.894;2022-09-02T05:37:39;7.37;;;3.80;;
43680;SDS011;29281;50.356;30.894;2022-09-02T05:38:44;6.14;;;3.41;;
43680;SDS011;29281;50.356;30.894;2022-09-02T05:39:49;8.08;;;3.35;;
43680;SDS011;29281;50.356;30.894;2022-09-02T05:40:53;7.10;;;3.32;;
43680;SDS011;29281;50.356;30.894;2022-09-02T05:41:57;10.97;;;4.03;;
43680;SDS011;29281;50.356;30.894;2022-09-02T05:43:02;7.73;;;3.63;;
43680;SDS011;29281;50.356;30.894;2022-09-02T05:44:06;7.62;;;3.16;;
43680;SDS011;29281;50.356;30.894;2022-09-02T05:45:10;9.55;;;3.34;;
43680;SDS011;29281;50.356;30.894;2022-09-02T05:46:21;8.91;;;3.26;;
43680;SDS011;29281;50.356;30.894;2022-09-02T05:47:34;8.02;;;2.98;;
43680;SDS011;29281;50.356;30.894;2022-09-02T05:48:38;7.26;;;2.64;;
43680;SDS011;29281;50.356;30.894;2022-09-02T05:50:02;3.76;;;2.17;;
43680;SDS011;29281;50.356;30.894;2022-09-02T05:51:08;4.56;;;1.86;;
43680;SDS011;29281;50.356;30.894;2022-09-02T05:52:12;3.02;;;1.64;;
43680;SDS011;29281;50.356;30.894;2022-09-02T05:53:18;5.79;;;1.63;;
43680;SDS011;29281;50.356;30.894;2022-09-02T05:54:31;3.16;;;1.71;;
43680;SDS011;29281;50.356;30.894;2022-09-02T05:55:40;4.80;;;2.15;;
43680;SDS011;29281;50.356;30.894;2022-09-02T05:56:45;5.16;;;1.72;;
43680;SDS011;29281;50.356;30.894;2022-09-02T05:57:52;5.16;;;1.93;;
43680;SDS011;29281;50.356;30.894;2022-09-02T05:58:57;5.39;;;1.74;;
43680;SDS011;29281;50.356;30.894;2022-09-02T06:00:04;3.04;;;1.70;;
43680;SDS011;29281;50.356;30.894;2022-09-02T06:01:16;5.43;;;1.93;;
43680;SDS011;29281;50.356;30.894;2022-09-02T06:02:21;4.31;;;1.88;;
43680;SDS011;29281;50.356;30.894;2022-09-02T06:03:26;4.22;;;2.07;;
43680;SDS011;29281;50.356;30.894;2022-09-02T06:04:31;5.37;;;1.86;;
43680;SDS011;29281;50.356;30.894;2022-09-02T06:05:34;4.06;;;1.66;;
43680;SDS011;29281;50.356;30.894;2022-09-02T06:06:42;3.48;;;1.84;;
43680;SDS011;29281;50.356;30.894;2022-09-02T06:07:47;6.59;;;1.84;;
43680;SDS011;29281;50.356;30.894;2022-09-02T06:08:56;3.31;;;1.68;;
43680;SDS011;29281;50.356;30.894;2022-09-02T06:10:01;4.84;;;2.11;;
43680;SDS011;29281;50.356;30.894;2022-09-02T06:11:08;8.26;;;2.30;;
43680;SDS011;29281;50.356;30.894;2022-09-02T06:12:14;3.66;;;2.22;;
43680;SDS011;29281;50.356;30.894;2022-09-02T06:13:22;4.27;;;2.48;;
43680;SDS011;29281;50.356;30.894;2022-09-02T06:14:27;2.96;;;1.87;;
43680;SDS011;29281;50.356;30.894;2022-09-02T06:15:34;5.57;;;2.51;;
43680;SDS011;29281;50.356;30.894;2022-09-02T06:16:45;6.66;;;2.19;;
43680;SDS011;29281;50.356;30.894;2022-09-02T06:17:52;4.10;;;2.34;;
43680;SDS011;29281;50.356;30.894;2022-09-02T06:18:58;4.06;;;2.43;;
43680;SDS011;29281;50.356;30.894;2022-09-02T06:20:05;5.35;;;2.92;;
43680;SDS011;29281;50.356;30.894;2022-09-02T06:21:14;4.43;;;2.66;;
43680;SDS011;29281;50.356;30.894;2022-09-02T06:22:21;6.15;;;3.34;;
43680;SDS011;29281;50.356;30.894;2022-09-02T06:23:25;5.90;;;3.30;;
43680;SDS011;29281;50.356;30.894;2022-09-02T06:24:29;5.83;;;3.14;;
43680;SDS011;29281;50.356;30.894;2022-09-02T06:25:40;5.48;;;3.26;;
43680;SDS011;29281;50.356;30.894;2022-09-02T06:26:45;4.01;;;2.96;;
43680;SDS011;29281;50.356;30.894;2022-09-02T06:27:50;5.94;;;2.82;;
43680;SDS011;29281;50.356;30.894;2022-09-02T06:28:54;5.16;;;3.18;;
43680;SDS011;29281;50.356;30.894;2022-09-02T06:29:56;6.16;;;3.08;;
43680;SDS011;29281;50.356;30.894;2022-09-02T06:31:12;6.51;;;3.13;;
43680;SDS011;29281;50.356;30.894;2022-09-02T06:32:18;5.61;;;3.33;;
43680;SDS011;29281;50.356;30.894;2022-09-02T06:33:24;6.67;;;3.18;;
43680;SDS011;29281;50.356;30.894;2022-09-02T06:34:29;5.86;;;3.53;;